Terminal Aerodrome Forecast
Issued by NWS Riverton, WY

Home | Current Version | Previous Version | Text Only | Print | Product List | Glossary On
Versions: 1 2 3 4 5 6 7 8 9 10 11 12 13
000
FTUS45 KRIW 250500
TAFRIW
TAF
KRIW 250533Z 2506/2606 VRB06KT P6SM SCT050 OVC090
     FM251100 02009KT 5SM -SN OVC030
     FM251400 35021G31KT 1SM -SN BLSN OVC008
     FM252200 35021G30KT 2SM -SN OVC020=

USA.gov is the U.S. government's official web portal to all federal, state and local government web resources and services.